createdAt,value
2022-12-22T00:00:56.600Z,7.28
2022-12-22T00:06:17.149Z,7.90
2022-12-22T00:11:45.493Z,7.00
2022-12-22T00:17:07.211Z,8.13
2022-12-22T00:22:43.204Z,9.05
2022-12-22T00:28:03.779Z,7.65
2022-12-22T00:33:25.076Z,7.03
2022-12-22T00:38:47.072Z,8.43
2022-12-22T00:44:07.647Z,8.60
2022-12-22T00:49:28.365Z,8.75
2022-12-22T00:54:48.997Z,8.80
2022-12-22T01:00:11.290Z,8.90
2022-12-22T01:05:31.777Z,9.75
2022-12-22T01:10:53.830Z,8.63
2022-12-22T01:16:14.731Z,10.48
2022-12-22T01:21:37.496Z,9.60
2022-12-22T01:26:58.173Z,9.57
2022-12-22T01:32:19.148Z,9.55
2022-12-22T01:37:40.158Z,9.85
2022-12-22T01:43:00.865Z,9.48
2022-12-22T01:48:21.630Z,8.48
2022-12-22T01:53:46.457Z,8.63
2022-12-22T01:59:16.285Z,9.73
2022-12-22T02:04:40.491Z,8.90
2022-12-22T02:10:24.079Z,9.35
2022-12-22T02:15:55.052Z,9.05
2022-12-22T02:21:21.568Z,8.70
2022-12-22T02:27:08.962Z,8.82
2022-12-22T02:32:30.398Z,9.18
2022-12-22T02:38:07.890Z,9.90
2022-12-22T02:43:46.895Z,10.88
2022-12-22T02:49:17.688Z,9.15
2022-12-22T02:54:39.837Z,10.15
2022-12-22T03:00:00.618Z,9.40
2022-12-22T03:05:21.127Z,10.43
2022-12-22T03:10:41.999Z,9.93
2022-12-22T03:16:02.742Z,9.18
2022-12-22T03:21:23.591Z,8.88
2022-12-22T03:26:26.231Z,9.65
2022-12-22T03:31:28.540Z,8.88
2022-12-22T03:36:30.801Z,10.20
2022-12-22T03:41:51.323Z,8.82
2022-12-22T03:46:53.562Z,8.80
2022-12-22T03:51:55.753Z,9.60
2022-12-22T03:56:58.082Z,9.20
2022-12-22T04:02:00.500Z,9.52
2022-12-22T04:07:02.765Z,8.35
2022-12-22T04:12:24.022Z,9.05
2022-12-22T04:17:26.223Z,10.07
2022-12-22T04:22:28.359Z,9.50
2022-12-22T04:27:30.620Z,8.75
2022-12-22T04:32:34.062Z,9.15
2022-12-22T04:37:39.307Z,10.98
2022-12-22T04:42:41.338Z,8.90
2022-12-22T04:47:43.388Z,8.18
2022-12-22T04:52:45.559Z,7.32
2022-12-22T04:57:47.591Z,8.85
2022-12-22T05:02:49.746Z,8.77
2022-12-22T05:07:51.999Z,7.38
2022-12-22T05:12:57.172Z,8.98
2022-12-22T05:18:00.495Z,8.65
2022-12-22T05:23:02.636Z,9.18
2022-12-22T05:28:05.069Z,8.85
2022-12-22T05:33:07.504Z,8.80
2022-12-22T05:38:09.594Z,8.05
2022-12-22T05:43:11.761Z,8.18
2022-12-22T05:48:15.082Z,7.65
2022-12-22T05:53:17.225Z,9.40
2022-12-22T05:58:19.796Z,9.07
2022-12-22T06:03:21.995Z,7.55
2022-12-22T06:08:24.759Z,7.05
2022-12-22T06:13:27.386Z,8.98
2022-12-22T06:18:29.720Z,7.10
2022-12-22T06:23:31.871Z,7.93
2022-12-22T06:28:33.956Z,8.15
2022-12-22T06:33:36.045Z,8.95
2022-12-22T06:38:38.121Z,9.38
2022-12-22T06:43:40.265Z,9.23
2022-12-22T06:48:42.343Z,7.82
2022-12-22T06:53:44.435Z,7.93
2022-12-22T06:58:46.549Z,7.45
2022-12-22T07:03:48.736Z,8.07
2022-12-22T07:08:50.938Z,9.73
2022-12-22T07:13:53.079Z,7.47
2022-12-22T07:18:55.350Z,7.15
2022-12-22T07:23:57.467Z,7.63
2022-12-22T07:28:59.676Z,8.45
2022-12-22T07:34:01.835Z,7.40
2022-12-22T07:39:03.965Z,6.68
2022-12-22T07:44:06.258Z,7.22
2022-12-22T07:49:26.936Z,6.70
2022-12-22T07:54:29.613Z,6.38
2022-12-22T07:59:31.684Z,6.28
2022-12-22T08:04:33.882Z,6.88
2022-12-22T08:09:36.164Z,6.40
2022-12-22T08:14:38.289Z,7.47
2022-12-22T08:19:40.710Z,6.18
2022-12-22T08:24:42.877Z,6.55
2022-12-22T08:29:49.968Z,6.45
2022-12-22T08:34:53.343Z,6.47
2022-12-22T08:40:01.464Z,6.95
2022-12-22T08:45:04.318Z,6.60
2022-12-22T08:50:07.167Z,6.20
2022-12-22T08:55:10.091Z,6.63
2022-12-22T09:00:13.301Z,5.60
2022-12-22T09:05:15.656Z,6.20
2022-12-22T09:10:17.920Z,5.95
2022-12-22T09:15:20.139Z,6.20
2022-12-22T09:20:22.617Z,5.68
2022-12-22T09:25:24.682Z,5.05
2022-12-22T09:30:26.732Z,4.30
2022-12-22T09:35:28.801Z,4.32
2022-12-22T09:40:32.591Z,4.55
2022-12-22T09:45:36.085Z,3.70
2022-12-22T09:50:40.010Z,2.83
2022-12-22T09:55:47.534Z,2.70
2022-12-22T10:00:54.817Z,3.05
2022-12-22T10:06:29.113Z,1.88
2022-12-22T10:11:31.168Z,1.63
2022-12-22T10:16:33.321Z,1.60
2022-12-22T10:21:38.720Z,1.48
2022-12-22T10:26:44.011Z,1.00
2022-12-22T10:32:13.049Z,0.90
2022-12-22T10:37:15.337Z,0.80
2022-12-22T10:42:17.621Z,0.73
2022-12-22T10:47:24.391Z,0.63
2022-12-22T10:52:32.606Z,0.80
2022-12-22T10:57:35.029Z,0.80
2022-12-22T11:02:39.249Z,0.80
2022-12-22T11:07:49.823Z,0.90
2022-12-22T11:13:06.630Z,0.63
2022-12-22T11:18:23.390Z,0.50
2022-12-22T11:23:34.420Z,0.47
2022-12-22T11:28:55.075Z,0.80
2022-12-22T11:34:21.520Z,0.65
2022-12-22T11:39:57.432Z,0.50
2022-12-22T11:45:30.139Z,0.70
2022-12-22T11:51:02.119Z,0.80
2022-12-22T11:56:13.430Z,0.82
2022-12-22T12:01:57.568Z,1.13
2022-12-22T12:07:25.195Z,1.30
2022-12-22T12:12:27.890Z,1.65
2022-12-22T12:17:50.798Z,1.70
2022-12-22T12:23:00.161Z,1.50
2022-12-22T12:28:52.276Z,1.30
2022-12-22T12:34:02.017Z,1.55
2022-12-22T12:39:17.161Z,1.23
2022-12-22T12:44:24.205Z,1.52
2022-12-22T12:49:35.607Z,1.20
2022-12-22T12:54:44.022Z,1.00
2022-12-22T12:59:46.638Z,1.50
2022-12-22T13:05:14.448Z,1.13
2022-12-22T13:10:23.947Z,1.40
2022-12-22T13:15:42.924Z,1.70
2022-12-22T13:20:45.477Z,1.95
2022-12-22T13:26:06.702Z,1.92
2022-12-22T13:31:35.733Z,2.17
2022-12-22T13:36:38.181Z,1.88
2022-12-22T13:41:43.470Z,1.75
2022-12-22T13:46:46.354Z,1.85
2022-12-22T13:51:48.700Z,1.88
2022-12-22T13:56:53.216Z,2.30
2022-12-22T14:02:00.681Z,2.83
2022-12-22T14:07:13.595Z,2.53
2022-12-22T14:12:28.723Z,1.85
2022-12-22T14:17:36.681Z,1.70
2022-12-22T14:22:46.373Z,1.23
2022-12-22T14:27:54.650Z,1.45
2022-12-22T14:32:57.777Z,1.35
2022-12-22T14:38:05.805Z,1.50
2022-12-22T14:43:20.753Z,1.95
2022-12-22T14:48:32.965Z,1.60
2022-12-22T14:53:45.453Z,2.30
2022-12-22T14:58:48.727Z,2.03
2022-12-22T15:04:07.721Z,2.38
2022-12-22T15:10:03.651Z,2.40
2022-12-22T15:14:49.142Z,2.92
2022-12-22T15:19:52.113Z,2.80
2022-12-22T15:24:54.323Z,2.22
2022-12-22T15:29:56.438Z,2.05
2022-12-22T15:34:58.792Z,2.60
2022-12-22T15:40:01.051Z,2.13
2022-12-22T15:45:03.211Z,1.95
2022-12-22T15:50:06.385Z,1.83
2022-12-22T15:55:13.958Z,1.65
2022-12-22T16:00:16.853Z,2.30
2022-12-22T16:05:19.027Z,2.30
2022-12-22T16:10:25.502Z,1.65
2022-12-22T16:15:29.906Z,1.85
2022-12-22T16:20:38.004Z,1.50
2022-12-22T16:25:40.472Z,1.90
2022-12-22T16:30:42.646Z,2.13
2022-12-22T16:35:44.905Z,1.90
2022-12-22T16:40:50.394Z,2.15
2022-12-22T16:45:52.591Z,2.40
2022-12-22T16:50:54.728Z,2.08
2022-12-22T16:55:59.320Z,2.80
2022-12-22T17:01:01.568Z,2.40
2022-12-22T17:06:05.341Z,2.70
2022-12-22T17:11:11.377Z,3.28
2022-12-22T17:16:23.756Z,3.22
2022-12-22T17:21:28.500Z,3.38
2022-12-22T17:26:32.715Z,3.92
2022-12-22T17:31:35.037Z,4.75
2022-12-22T17:36:39.820Z,3.88
2022-12-22T17:41:42.602Z,5.15
2022-12-22T17:46:44.829Z,3.75
2022-12-22T17:51:47.336Z,4.40
2022-12-22T17:56:49.710Z,3.65
2022-12-22T18:01:51.969Z,3.90
2022-12-22T18:06:54.226Z,3.63
2022-12-22T18:11:56.305Z,3.90
2022-12-22T18:16:58.477Z,4.70
2022-12-22T18:22:00.603Z,4.85
2022-12-22T18:27:02.663Z,5.63
2022-12-22T18:32:05.155Z,5.75
2022-12-22T18:37:15.166Z,5.32
2022-12-22T18:42:22.786Z,5.85
2022-12-22T18:47:24.939Z,4.70
2022-12-22T18:52:27.227Z,5.13
2022-12-22T18:57:29.418Z,5.45
2022-12-22T19:02:32.841Z,5.25
2022-12-22T19:07:35.109Z,6.40
2022-12-22T19:12:37.248Z,5.80
2022-12-22T19:17:39.475Z,6.00
2022-12-22T19:22:41.567Z,7.07
2022-12-22T19:27:45.004Z,7.00
2022-12-22T19:32:53.976Z,6.00
2022-12-22T19:37:57.214Z,7.18
2022-12-22T19:42:59.901Z,6.55
2022-12-22T19:48:03.751Z,6.30
2022-12-22T19:53:05.909Z,5.95
2022-12-22T19:58:15.096Z,6.68
2022-12-22T20:03:22.572Z,6.10
2022-12-22T20:08:24.724Z,5.75
2022-12-22T20:13:31.579Z,5.85
2022-12-22T20:18:33.742Z,6.20
2022-12-22T20:23:37.740Z,5.50
2022-12-22T20:28:40.459Z,6.03
2022-12-22T20:33:42.990Z,6.28
2022-12-22T20:38:46.361Z,5.68
2022-12-22T20:43:49.085Z,5.75
2022-12-22T20:48:56.264Z,5.13
2022-12-22T20:53:59.272Z,6.30
2022-12-22T20:59:12.576Z,5.50
2022-12-22T21:04:15.886Z,5.35
2022-12-22T21:09:18.648Z,5.65
2022-12-22T21:14:20.986Z,4.68
2022-12-22T21:19:23.172Z,4.97
2022-12-22T21:24:25.261Z,5.35
2022-12-22T21:29:27.710Z,5.28
2022-12-22T21:34:29.893Z,4.32
2022-12-22T21:39:41.749Z,5.05
2022-12-22T21:44:45.296Z,5.07
2022-12-22T21:49:47.484Z,4.35
2022-12-22T21:54:49.558Z,4.40
2022-12-22T21:59:51.721Z,4.10
2022-12-22T22:04:55.128Z,4.53
2022-12-22T22:09:57.656Z,4.80
2022-12-22T22:15:03.172Z,4.15
2022-12-22T22:25:10.024Z,4.55
2022-12-22T22:30:20.865Z,4.57
2022-12-22T22:35:25.225Z,4.50
2022-12-22T22:40:27.377Z,4.45
2022-12-22T22:45:29.540Z,4.95
2022-12-22T22:50:32.041Z,3.85
2022-12-22T22:55:34.895Z,3.22
2022-12-22T23:00:38.743Z,3.10
2022-12-22T23:05:41.059Z,2.67
2022-12-22T23:10:49.413Z,2.28
2022-12-22T23:15:59.536Z,1.23
2022-12-22T23:21:03.623Z,1.42
2022-12-22T23:26:06.201Z,0.93
2022-12-22T23:31:12.004Z,0.70
2022-12-22T23:41:16.154Z,0.90
2022-12-22T23:46:18.508Z,0.70
2022-12-22T23:51:21.949Z,0.60
2022-12-22T23:56:24.132Z,0.95
